sensor_id;sensor_type;location;lat;lon;timestamp;temperature;humidity
26304;DHT22;70693;48.680;8.890;2023-07-30T00:02:15;20.00;99.90
26304;DHT22;70693;48.680;8.890;2023-07-30T00:04:41;20.00;99.90
26304;DHT22;70693;48.680;8.890;2023-07-30T00:07:07;20.00;99.90
26304;DHT22;70693;48.680;8.890;2023-07-30T00:09:33;20.00;99.90
26304;DHT22;70693;48.680;8.890;2023-07-30T00:11:58;20.00;99.90
26304;DHT22;70693;48.680;8.890;2023-07-30T00:14:24;20.00;99.90
26304;DHT22;70693;48.680;8.890;2023-07-30T00:16:49;20.00;99.90
26304;DHT22;70693;48.680;8.890;2023-07-30T00:19:15;20.00;99.90
26304;DHT22;70693;48.680;8.890;2023-07-30T00:21:40;20.00;99.90
26304;DHT22;70693;48.680;8.890;2023-07-30T00:24:09;20.00;99.90
26304;DHT22;70693;48.680;8.890;2023-07-30T00:26:34;20.00;99.90
26304;DHT22;70693;48.680;8.890;2023-07-30T00:29:00;20.00;99.90
26304;DHT22;70693;48.680;8.890;2023-07-30T00:31:25;20.00;99.90
26304;DHT22;70693;48.680;8.890;2023-07-30T00:33:51;20.00;99.90
26304;DHT22;70693;48.680;8.890;2023-07-30T00:36:17;20.00;99.90
26304;DHT22;70693;48.680;8.890;2023-07-30T00:38:42;20.00;99.90
26304;DHT22;70693;48.680;8.890;2023-07-30T00:41:08;20.00;99.90
26304;DHT22;70693;48.680;8.890;2023-07-30T00:43:33;20.00;99.90
26304;DHT22;70693;48.680;8.890;2023-07-30T00:45:59;20.00;99.90
26304;DHT22;70693;48.680;8.890;2023-07-30T00:48:25;20.00;99.90
26304;DHT22;70693;48.680;8.890;2023-07-30T00:50:50;20.00;99.90
26304;DHT22;70693;48.680;8.890;2023-07-30T00:53:16;20.00;99.90
26304;DHT22;70693;48.680;8.890;2023-07-30T00:55:43;20.00;99.90
26304;DHT22;70693;48.680;8.890;2023-07-30T00:58:10;20.00;99.90
26304;DHT22;70693;48.680;8.890;2023-07-30T01:00:35;20.00;99.90
26304;DHT22;70693;48.680;8.890;2023-07-30T01:03:01;20.00;99.90
26304;DHT22;70693;48.680;8.890;2023-07-30T01:05:27;20.00;99.90
26304;DHT22;70693;48.680;8.890;2023-07-30T01:07:52;20.00;99.90
26304;DHT22;70693;48.680;8.890;2023-07-30T01:10:18;20.00;99.90
26304;DHT22;70693;48.680;8.890;2023-07-30T01:12:45;20.00;99.90
26304;DHT22;70693;48.680;8.890;2023-07-30T01:15:11;20.00;99.90
26304;DHT22;70693;48.680;8.890;2023-07-30T01:17:37;20.00;99.90
26304;DHT22;70693;48.680;8.890;2023-07-30T01:20:03;20.00;99.90
26304;DHT22;70693;48.680;8.890;2023-07-30T01:22:29;20.00;99.90
26304;DHT22;70693;48.680;8.890;2023-07-30T01:24:55;20.00;99.90
26304;DHT22;70693;48.680;8.890;2023-07-30T01:27:26;20.00;99.90
26304;DHT22;70693;48.680;8.890;2023-07-30T01:29:57;20.00;99.90
26304;DHT22;70693;48.680;8.890;2023-07-30T01:32:27;20.00;99.90
26304;DHT22;70693;48.680;8.890;2023-07-30T01:34:55;20.00;99.90
26304;DHT22;70693;48.680;8.890;2023-07-30T01:37:22;20.00;99.90
26304;DHT22;70693;48.680;8.890;2023-07-30T01:39:51;20.00;99.90
26304;DHT22;70693;48.680;8.890;2023-07-30T01:42:16;20.00;99.90
26304;DHT22;70693;48.680;8.890;2023-07-30T01:44:42;20.00;99.90
26304;DHT22;70693;48.680;8.890;2023-07-30T01:47:08;20.00;99.90
26304;DHT22;70693;48.680;8.890;2023-07-30T01:49:34;20.00;99.90
26304;DHT22;70693;48.680;8.890;2023-07-30T01:51:59;20.00;99.90
26304;DHT22;70693;48.680;8.890;2023-07-30T01:54:25;20.00;99.90
26304;DHT22;70693;48.680;8.890;2023-07-30T01:56:51;20.00;99.90
26304;DHT22;70693;48.680;8.890;2023-07-30T01:59:17;20.00;99.90
26304;DHT22;70693;48.680;8.890;2023-07-30T02:01:43;20.00;99.90
26304;DHT22;70693;48.680;8.890;2023-07-30T02:04:09;20.00;99.90
26304;DHT22;70693;48.680;8.890;2023-07-30T02:06:34;20.00;99.90
26304;DHT22;70693;48.680;8.890;2023-07-30T02:09:00;20.00;99.90
26304;DHT22;70693;48.680;8.890;2023-07-30T02:11:26;20.00;99.90
26304;DHT22;70693;48.680;8.890;2023-07-30T02:13:52;20.00;99.90
26304;DHT22;70693;48.680;8.890;2023-07-30T02:16:17;20.00;99.90
26304;DHT22;70693;48.680;8.890;2023-07-30T02:18:44;19.90;99.90
26304;DHT22;70693;48.680;8.890;2023-07-30T02:21:09;19.90;99.90
26304;DHT22;70693;48.680;8.890;2023-07-30T02:23:35;20.00;99.90
26304;DHT22;70693;48.680;8.890;2023-07-30T02:26:01;19.90;99.90
26304;DHT22;70693;48.680;8.890;2023-07-30T02:28:26;20.00;99.90
26304;DHT22;70693;48.680;8.890;2023-07-30T02:30:52;19.90;99.90
26304;DHT22;70693;48.680;8.890;2023-07-30T02:33:17;20.00;99.90
26304;DHT22;70693;48.680;8.890;2023-07-30T02:35:43;19.90;99.90
26304;DHT22;70693;48.680;8.890;2023-07-30T02:38:09;19.90;99.90
26304;DHT22;70693;48.680;8.890;2023-07-30T02:40:35;19.90;99.90
26304;DHT22;70693;48.680;8.890;2023-07-30T02:43:01;19.90;99.90
26304;DHT22;70693;48.680;8.890;2023-07-30T02:45:26;19.90;99.90
26304;DHT22;70693;48.680;8.890;2023-07-30T02:47:52;19.90;99.90
26304;DHT22;70693;48.680;8.890;2023-07-30T02:50:18;20.00;99.90
26304;DHT22;70693;48.680;8.890;2023-07-30T02:52:43;19.90;99.90
26304;DHT22;70693;48.680;8.890;2023-07-30T02:55:09;19.90;99.90
26304;DHT22;70693;48.680;8.890;2023-07-30T02:57:35;19.90;99.90
26304;DHT22;70693;48.680;8.890;2023-07-30T03:00:01;19.90;99.90
26304;DHT22;70693;48.680;8.890;2023-07-30T03:02:27;19.90;99.90
26304;DHT22;70693;48.680;8.890;2023-07-30T03:04:52;19.90;99.90
26304;DHT22;70693;48.680;8.890;2023-07-30T03:07:18;19.90;99.90
26304;DHT22;70693;48.680;8.890;2023-07-30T03:09:45;19.90;99.90
26304;DHT22;70693;48.680;8.890;2023-07-30T03:12:10;19.90;99.90
26304;DHT22;70693;48.680;8.890;2023-07-30T03:14:36;19.90;99.90
26304;DHT22;70693;48.680;8.890;2023-07-30T03:17:02;19.90;99.90
26304;DHT22;70693;48.680;8.890;2023-07-30T03:19:27;19.90;99.90
26304;DHT22;70693;48.680;8.890;2023-07-30T03:21:53;19.90;99.90
26304;DHT22;70693;48.680;8.890;2023-07-30T03:24:19;19.90;99.90
26304;DHT22;70693;48.680;8.890;2023-07-30T03:26:44;19.90;99.90
26304;DHT22;70693;48.680;8.890;2023-07-30T03:29:10;19.90;99.90
26304;DHT22;70693;48.680;8.890;2023-07-30T03:31:35;19.90;99.90
26304;DHT22;70693;48.680;8.890;2023-07-30T03:34:01;19.90;99.90
26304;DHT22;70693;48.680;8.890;2023-07-30T03:36:26;19.90;99.90
26304;DHT22;70693;48.680;8.890;2023-07-30T03:38:52;19.90;99.90
26304;DHT22;70693;48.680;8.890;2023-07-30T03:41:18;19.90;99.90
26304;DHT22;70693;48.680;8.890;2023-07-30T03:43:43;19.90;99.90
26304;DHT22;70693;48.680;8.890;2023-07-30T03:46:09;19.90;99.90
26304;DHT22;70693;48.680;8.890;2023-07-30T03:48:34;19.90;99.90
26304;DHT22;70693;48.680;8.890;2023-07-30T03:51:00;19.90;99.90
26304;DHT22;70693;48.680;8.890;2023-07-30T03:53:26;19.90;99.90
26304;DHT22;70693;48.680;8.890;2023-07-30T03:55:51;19.90;99.90
26304;DHT22;70693;48.680;8.890;2023-07-30T03:58:17;19.90;99.90
26304;DHT22;70693;48.680;8.890;2023-07-30T04:00:42;19.90;99.90
26304;DHT22;70693;48.680;8.890;2023-07-30T04:03:08;19.90;99.90
26304;DHT22;70693;48.680;8.890;2023-07-30T04:05:34;19.90;99.90
26304;DHT22;70693;48.680;8.890;2023-07-30T04:07:59;19.90;99.90
26304;DHT22;70693;48.680;8.890;2023-07-30T04:10:25;19.90;99.90
26304;DHT22;70693;48.680;8.890;2023-07-30T04:12:51;19.90;99.90
26304;DHT22;70693;48.680;8.890;2023-07-30T04:15:16;19.90;99.90
26304;DHT22;70693;48.680;8.890;2023-07-30T04:17:42;19.90;99.90
26304;DHT22;70693;48.680;8.890;2023-07-30T04:20:08;19.90;99.90
26304;DHT22;70693;48.680;8.890;2023-07-30T04:22:37;19.90;99.90
26304;DHT22;70693;48.680;8.890;2023-07-30T04:25:03;19.90;99.90
26304;DHT22;70693;48.680;8.890;2023-07-30T04:27:30;19.90;99.90
26304;DHT22;70693;48.680;8.890;2023-07-30T04:29:56;19.90;99.90
26304;DHT22;70693;48.680;8.890;2023-07-30T04:32:21;19.90;99.90
26304;DHT22;70693;48.680;8.890;2023-07-30T04:34:47;19.90;99.90
26304;DHT22;70693;48.680;8.890;2023-07-30T04:37:13;19.90;99.90
26304;DHT22;70693;48.680;8.890;2023-07-30T04:39:38;19.90;99.90
26304;DHT22;70693;48.680;8.890;2023-07-30T04:42:04;19.90;99.90
26304;DHT22;70693;48.680;8.890;2023-07-30T04:44:30;19.80;99.90
26304;DHT22;70693;48.680;8.890;2023-07-30T04:46:56;19.80;99.90
26304;DHT22;70693;48.680;8.890;2023-07-30T04:49:21;19.90;99.90
26304;DHT22;70693;48.680;8.890;2023-07-30T04:51:47;19.90;99.90
26304;DHT22;70693;48.680;8.890;2023-07-30T04:54:12;19.90;99.90
26304;DHT22;70693;48.680;8.890;2023-07-30T04:56:38;19.90;99.90
26304;DHT22;70693;48.680;8.890;2023-07-30T04:59:04;19.90;99.90
26304;DHT22;70693;48.680;8.890;2023-07-30T05:01:29;19.90;99.90
26304;DHT22;70693;48.680;8.890;2023-07-30T05:03:56;19.90;99.90
26304;DHT22;70693;48.680;8.890;2023-07-30T05:06:22;19.90;99.90
26304;DHT22;70693;48.680;8.890;2023-07-30T05:08:48;19.90;99.90
26304;DHT22;70693;48.680;8.890;2023-07-30T05:11:14;19.90;99.90
26304;DHT22;70693;48.680;8.890;2023-07-30T05:13:40;19.90;99.90
26304;DHT22;70693;48.680;8.890;2023-07-30T05:16:06;19.90;99.90
26304;DHT22;70693;48.680;8.890;2023-07-30T05:18:31;19.90;99.90
26304;DHT22;70693;48.680;8.890;2023-07-30T05:20:57;19.90;99.90
26304;DHT22;70693;48.680;8.890;2023-07-30T05:23:22;19.90;99.90
26304;DHT22;70693;48.680;8.890;2023-07-30T05:25:48;19.80;99.90
26304;DHT22;70693;48.680;8.890;2023-07-30T05:28:13;19.90;99.90
26304;DHT22;70693;48.680;8.890;2023-07-30T05:30:39;19.90;99.90
26304;DHT22;70693;48.680;8.890;2023-07-30T05:33:05;19.80;99.90
26304;DHT22;70693;48.680;8.890;2023-07-30T05:35:30;19.80;99.90
26304;DHT22;70693;48.680;8.890;2023-07-30T05:37:56;19.90;99.90
26304;DHT22;70693;48.680;8.890;2023-07-30T05:40:22;19.90;99.90
26304;DHT22;70693;48.680;8.890;2023-07-30T05:42:48;19.90;99.90
26304;DHT22;70693;48.680;8.890;2023-07-30T05:45:13;19.90;99.90
26304;DHT22;70693;48.680;8.890;2023-07-30T05:47:39;19.80;99.90
26304;DHT22;70693;48.680;8.890;2023-07-30T05:50:07;19.90;99.90
26304;DHT22;70693;48.680;8.890;2023-07-30T05:52:33;19.90;99.90
26304;DHT22;70693;48.680;8.890;2023-07-30T05:54:58;19.90;99.90
26304;DHT22;70693;48.680;8.890;2023-07-30T05:57:24;19.90;99.90
26304;DHT22;70693;48.680;8.890;2023-07-30T05:59:50;19.80;99.90
26304;DHT22;70693;48.680;8.890;2023-07-30T06:02:16;19.90;99.90
26304;DHT22;70693;48.680;8.890;2023-07-30T06:04:41;19.90;99.90
26304;DHT22;70693;48.680;8.890;2023-07-30T06:07:07;19.80;99.90
26304;DHT22;70693;48.680;8.890;2023-07-30T06:09:33;19.80;99.90
26304;DHT22;70693;48.680;8.890;2023-07-30T06:11:58;19.80;99.90
26304;DHT22;70693;48.680;8.890;2023-07-30T06:14:25;19.80;99.90
26304;DHT22;70693;48.680;8.890;2023-07-30T06:16:51;19.90;99.90
26304;DHT22;70693;48.680;8.890;2023-07-30T06:19:17;19.80;99.90
26304;DHT22;70693;48.680;8.890;2023-07-30T06:21:42;19.90;99.90
26304;DHT22;70693;48.680;8.890;2023-07-30T06:24:08;19.90;99.90
26304;DHT22;70693;48.680;8.890;2023-07-30T06:26:33;19.90;99.90
26304;DHT22;70693;48.680;8.890;2023-07-30T06:28:59;19.90;99.90
26304;DHT22;70693;48.680;8.890;2023-07-30T06:31:25;19.80;99.90
26304;DHT22;70693;48.680;8.890;2023-07-30T06:33:50;19.90;99.90
26304;DHT22;70693;48.680;8.890;2023-07-30T06:36:16;19.90;99.90
26304;DHT22;70693;48.680;8.890;2023-07-30T06:38:41;19.90;99.90
26304;DHT22;70693;48.680;8.890;2023-07-30T06:41:07;19.90;99.90
26304;DHT22;70693;48.680;8.890;2023-07-30T06:43:33;19.90;99.90
26304;DHT22;70693;48.680;8.890;2023-07-30T06:45:58;19.90;99.90
26304;DHT22;70693;48.680;8.890;2023-07-30T06:48:24;19.90;99.90
26304;DHT22;70693;48.680;8.890;2023-07-30T06:50:50;19.90;99.90
26304;DHT22;70693;48.680;8.890;2023-07-30T06:53:15;19.90;99.90
26304;DHT22;70693;48.680;8.890;2023-07-30T06:55:41;19.90;99.90
26304;DHT22;70693;48.680;8.890;2023-07-30T06:58:06;19.90;99.90
26304;DHT22;70693;48.680;8.890;2023-07-30T07:00:32;19.90;99.90
26304;DHT22;70693;48.680;8.890;2023-07-30T07:02:58;19.90;99.90
26304;DHT22;70693;48.680;8.890;2023-07-30T07:05:24;19.90;99.90
26304;DHT22;70693;48.680;8.890;2023-07-30T07:07:49;19.90;99.90
26304;DHT22;70693;48.680;8.890;2023-07-30T07:10:15;19.90;99.90
26304;DHT22;70693;48.680;8.890;2023-07-30T07:12:41;19.90;99.90
26304;DHT22;70693;48.680;8.890;2023-07-30T07:15:06;19.90;99.90
26304;DHT22;70693;48.680;8.890;2023-07-30T07:17:32;19.90;99.90
26304;DHT22;70693;48.680;8.890;2023-07-30T07:19:58;19.90;99.90
26304;DHT22;70693;48.680;8.890;2023-07-30T07:22:24;19.90;99.90
26304;DHT22;70693;48.680;8.890;2023-07-30T07:24:53;19.90;99.90
26304;DHT22;70693;48.680;8.890;2023-07-30T07:27:19;19.90;99.90
26304;DHT22;70693;48.680;8.890;2023-07-30T07:29:44;19.90;99.90
26304;DHT22;70693;48.680;8.890;2023-07-30T07:32:10;19.90;99.90
26304;DHT22;70693;48.680;8.890;2023-07-30T07:34:36;19.90;99.90
26304;DHT22;70693;48.680;8.890;2023-07-30T07:37:02;19.90;99.90
26304;DHT22;70693;48.680;8.890;2023-07-30T07:39:28;19.90;99.90
26304;DHT22;70693;48.680;8.890;2023-07-30T07:41:54;19.90;99.90
26304;DHT22;70693;48.680;8.890;2023-07-30T07:44:20;19.90;99.90
26304;DHT22;70693;48.680;8.890;2023-07-30T07:46:47;19.90;99.90
26304;DHT22;70693;48.680;8.890;2023-07-30T07:49:12;19.90;99.90
26304;DHT22;70693;48.680;8.890;2023-07-30T07:51:38;19.90;99.90
26304;DHT22;70693;48.680;8.890;2023-07-30T07:54:04;19.90;99.90
26304;DHT22;70693;48.680;8.890;2023-07-30T07:56:30;19.90;99.90
26304;DHT22;70693;48.680;8.890;2023-07-30T07:58:57;19.90;99.90
26304;DHT22;70693;48.680;8.890;2023-07-30T08:01:22;19.90;99.90
26304;DHT22;70693;48.680;8.890;2023-07-30T08:03:48;19.90;99.90
26304;DHT22;70693;48.680;8.890;2023-07-30T08:06:14;19.90;99.90
26304;DHT22;70693;48.680;8.890;2023-07-30T08:08:39;19.90;99.90
26304;DHT22;70693;48.680;8.890;2023-07-30T08:11:06;19.90;99.90
26304;DHT22;70693;48.680;8.890;2023-07-30T08:13:32;19.90;99.90
26304;DHT22;70693;48.680;8.890;2023-07-30T08:15:58;19.90;99.90
26304;DHT22;70693;48.680;8.890;2023-07-30T08:18:24;19.90;99.90
26304;DHT22;70693;48.680;8.890;2023-07-30T08:20:50;19.90;99.90
26304;DHT22;70693;48.680;8.890;2023-07-30T08:23:15;19.90;99.90
26304;DHT22;70693;48.680;8.890;2023-07-30T08:25:41;19.90;99.90
26304;DHT22;70693;48.680;8.890;2023-07-30T08:28:07;19.90;99.90
26304;DHT22;70693;48.680;8.890;2023-07-30T08:30:32;19.90;99.90
26304;DHT22;70693;48.680;8.890;2023-07-30T08:32:58;19.90;99.90
26304;DHT22;70693;48.680;8.890;2023-07-30T08:35:24;20.00;99.90
26304;DHT22;70693;48.680;8.890;2023-07-30T08:37:49;19.90;99.90
26304;DHT22;70693;48.680;8.890;2023-07-30T08:40:15;19.90;99.90
26304;DHT22;70693;48.680;8.890;2023-07-30T08:42:41;19.90;99.90
26304;DHT22;70693;48.680;8.890;2023-07-30T08:45:07;19.90;99.90
26304;DHT22;70693;48.680;8.890;2023-07-30T08:47:37;19.90;99.90
26304;DHT22;70693;48.680;8.890;2023-07-30T08:50:03;19.90;99.90
26304;DHT22;70693;48.680;8.890;2023-07-30T08:52:29;20.00;99.90
26304;DHT22;70693;48.680;8.890;2023-07-30T08:54:55;19.90;99.90
26304;DHT22;70693;48.680;8.890;2023-07-30T08:57:22;19.90;99.90
26304;DHT22;70693;48.680;8.890;2023-07-30T09:00:03;20.00;99.90
26304;DHT22;70693;48.680;8.890;2023-07-30T09:05:07;19.90;99.90
26304;DHT22;70693;48.680;8.890;2023-07-30T09:07:33;19.90;99.90
26304;DHT22;70693;48.680;8.890;2023-07-30T09:09:59;20.00;99.90
26304;DHT22;70693;48.680;8.890;2023-07-30T09:12:31;19.90;99.90
26304;DHT22;70693;48.680;8.890;2023-07-30T09:14:57;20.00;99.90
26304;DHT22;70693;48.680;8.890;2023-07-30T09:17:23;19.90;99.90
26304;DHT22;70693;48.680;8.890;2023-07-30T09:19:49;20.00;99.90
26304;DHT22;70693;48.680;8.890;2023-07-30T09:24:50;19.90;99.90
26304;DHT22;70693;48.680;8.890;2023-07-30T09:27:20;20.00;99.90
26304;DHT22;70693;48.680;8.890;2023-07-30T09:29:52;19.90;99.90
26304;DHT22;70693;48.680;8.890;2023-07-30T09:32:18;19.90;99.90
26304;DHT22;70693;48.680;8.890;2023-07-30T09:34:44;19.90;99.90
26304;DHT22;70693;48.680;8.890;2023-07-30T09:37:10;19.90;99.90
26304;DHT22;70693;48.680;8.890;2023-07-30T09:39:37;19.90;99.90
26304;DHT22;70693;48.680;8.890;2023-07-30T09:42:03;19.90;99.90
26304;DHT22;70693;48.680;8.890;2023-07-30T09:44:32;19.90;99.90
26304;DHT22;70693;48.680;8.890;2023-07-30T09:46:58;19.90;99.90
26304;DHT22;70693;48.680;8.890;2023-07-30T09:49:24;19.90;99.90
26304;DHT22;70693;48.680;8.890;2023-07-30T09:51:50;19.90;99.90
26304;DHT22;70693;48.680;8.890;2023-07-30T09:54:17;20.00;99.90
26304;DHT22;70693;48.680;8.890;2023-07-30T09:56:42;19.90;99.90
26304;DHT22;70693;48.680;8.890;2023-07-30T09:59:09;20.00;99.90
26304;DHT22;70693;48.680;8.890;2023-07-30T10:01:48;19.90;99.90
26304;DHT22;70693;48.680;8.890;2023-07-30T10:04:15;20.00;99.90
26304;DHT22;70693;48.680;8.890;2023-07-30T10:06:53;20.00;99.90
26304;DHT22;70693;48.680;8.890;2023-07-30T10:09:21;20.00;99.90
26304;DHT22;70693;48.680;8.890;2023-07-30T10:11:49;20.00;99.90
26304;DHT22;70693;48.680;8.890;2023-07-30T10:14:17;20.00;99.90
26304;DHT22;70693;48.680;8.890;2023-07-30T10:16:52;20.00;99.90
26304;DHT22;70693;48.680;8.890;2023-07-30T10:19:22;20.00;99.90
26304;DHT22;70693;48.680;8.890;2023-07-30T10:21:48;20.00;99.90
26304;DHT22;70693;48.680;8.890;2023-07-30T10:24:14;20.00;99.90
26304;DHT22;70693;48.680;8.890;2023-07-30T10:26:39;20.10;99.90
26304;DHT22;70693;48.680;8.890;2023-07-30T10:29:19;20.00;99.90
26304;DHT22;70693;48.680;8.890;2023-07-30T10:31:55;20.00;99.90
26304;DHT22;70693;48.680;8.890;2023-07-30T10:34:23;20.00;99.90
26304;DHT22;70693;48.680;8.890;2023-07-30T10:36:55;20.10;99.90
26304;DHT22;70693;48.680;8.890;2023-07-30T10:39:29;20.10;99.90
26304;DHT22;70693;48.680;8.890;2023-07-30T10:41:57;20.10;99.90
26304;DHT22;70693;48.680;8.890;2023-07-30T10:46:50;20.10;99.90
26304;DHT22;70693;48.680;8.890;2023-07-30T10:49:16;20.10;99.90
26304;DHT22;70693;48.680;8.890;2023-07-30T10:51:42;20.10;99.90
26304;DHT22;70693;48.680;8.890;2023-07-30T10:54:10;20.10;99.90
26304;DHT22;70693;48.680;8.890;2023-07-30T10:56:37;20.10;99.90
26304;DHT22;70693;48.680;8.890;2023-07-30T10:59:07;20.10;99.90
26304;DHT22;70693;48.680;8.890;2023-07-30T11:01:43;20.10;99.90
26304;DHT22;70693;48.680;8.890;2023-07-30T11:04:20;20.10;99.90
26304;DHT22;70693;48.680;8.890;2023-07-30T11:06:50;20.20;99.90
26304;DHT22;70693;48.680;8.890;2023-07-30T11:11:49;20.20;99.90
26304;DHT22;70693;48.680;8.890;2023-07-30T11:14:16;20.20;99.90
26304;DHT22;70693;48.680;8.890;2023-07-30T11:17:02;20.20;99.90
26304;DHT22;70693;48.680;8.890;2023-07-30T11:19:28;20.20;99.90
26304;DHT22;70693;48.680;8.890;2023-07-30T11:21:56;20.20;99.90
26304;DHT22;70693;48.680;8.890;2023-07-30T11:24:22;20.20;99.90
26304;DHT22;70693;48.680;8.890;2023-07-30T11:26:59;20.20;99.90
26304;DHT22;70693;48.680;8.890;2023-07-30T11:29:25;20.20;99.90
26304;DHT22;70693;48.680;8.890;2023-07-30T11:31:51;20.20;99.90
26304;DHT22;70693;48.680;8.890;2023-07-30T11:34:18;20.20;99.90
26304;DHT22;70693;48.680;8.890;2023-07-30T11:36:44;20.20;99.90
26304;DHT22;70693;48.680;8.890;2023-07-30T11:39:10;20.20;99.90
26304;DHT22;70693;48.680;8.890;2023-07-30T11:41:37;20.30;99.90
26304;DHT22;70693;48.680;8.890;2023-07-30T11:44:04;20.30;99.90
26304;DHT22;70693;48.680;8.890;2023-07-30T11:46:30;20.30;99.90
26304;DHT22;70693;48.680;8.890;2023-07-30T11:49:16;20.30;99.90
26304;DHT22;70693;48.680;8.890;2023-07-30T11:51:46;20.30;99.90
26304;DHT22;70693;48.680;8.890;2023-07-30T11:54:20;20.30;99.90
26304;DHT22;70693;48.680;8.890;2023-07-30T11:56:58;20.30;99.90
26304;DHT22;70693;48.680;8.890;2023-07-30T11:59:23;20.30;99.90
26304;DHT22;70693;48.680;8.890;2023-07-30T12:01:49;20.30;99.90
26304;DHT22;70693;48.680;8.890;2023-07-30T12:04:15;20.30;99.90
26304;DHT22;70693;48.680;8.890;2023-07-30T12:06:51;20.30;99.90
26304;DHT22;70693;48.680;8.890;2023-07-30T12:09:23;20.30;99.90
26304;DHT22;70693;48.680;8.890;2023-07-30T12:11:59;20.30;99.90
26304;DHT22;70693;48.680;8.890;2023-07-30T12:14:28;20.30;99.90
26304;DHT22;70693;48.680;8.890;2023-07-30T12:16:59;20.30;99.90
26304;DHT22;70693;48.680;8.890;2023-07-30T12:19:24;20.30;99.90
26304;DHT22;70693;48.680;8.890;2023-07-30T12:21:50;20.30;99.90
26304;DHT22;70693;48.680;8.890;2023-07-30T12:24:16;20.30;99.90
26304;DHT22;70693;48.680;8.890;2023-07-30T12:26:41;20.30;99.90
26304;DHT22;70693;48.680;8.890;2023-07-30T12:29:07;20.30;99.90
26304;DHT22;70693;48.680;8.890;2023-07-30T12:31:32;20.30;99.90
26304;DHT22;70693;48.680;8.890;2023-07-30T12:33:58;20.30;99.90
26304;DHT22;70693;48.680;8.890;2023-07-30T12:36:23;20.30;99.90
26304;DHT22;70693;48.680;8.890;2023-07-30T12:38:49;20.30;99.90
26304;DHT22;70693;48.680;8.890;2023-07-30T12:41:17;20.30;99.90
26304;DHT22;70693;48.680;8.890;2023-07-30T12:43:44;20.30;99.90
26304;DHT22;70693;48.680;8.890;2023-07-30T12:46:09;20.30;99.90
26304;DHT22;70693;48.680;8.890;2023-07-30T12:48:35;20.30;99.90
26304;DHT22;70693;48.680;8.890;2023-07-30T12:51:02;20.30;99.90
26304;DHT22;70693;48.680;8.890;2023-07-30T12:53:27;20.30;99.90
26304;DHT22;70693;48.680;8.890;2023-07-30T12:55:53;20.30;99.90
26304;DHT22;70693;48.680;8.890;2023-07-30T12:58:19;20.30;99.90
26304;DHT22;70693;48.680;8.890;2023-07-30T13:00:44;20.30;99.90
26304;DHT22;70693;48.680;8.890;2023-07-30T13:03:10;20.30;99.90
26304;DHT22;70693;48.680;8.890;2023-07-30T13:05:36;20.30;99.90
26304;DHT22;70693;48.680;8.890;2023-07-30T13:08:02;20.30;99.90
26304;DHT22;70693;48.680;8.890;2023-07-30T13:10:27;20.30;99.90
26304;DHT22;70693;48.680;8.890;2023-07-30T13:12:53;20.40;99.90
26304;DHT22;70693;48.680;8.890;2023-07-30T13:15:18;20.30;99.90
26304;DHT22;70693;48.680;8.890;2023-07-30T13:17:44;20.30;99.90
26304;DHT22;70693;48.680;8.890;2023-07-30T13:20:10;20.30;99.90
26304;DHT22;70693;48.680;8.890;2023-07-30T13:22:36;20.30;99.90
26304;DHT22;70693;48.680;8.890;2023-07-30T13:25:01;20.30;99.90
26304;DHT22;70693;48.680;8.890;2023-07-30T13:27:27;20.30;99.90
26304;DHT22;70693;48.680;8.890;2023-07-30T13:29:53;20.40;99.90
26304;DHT22;70693;48.680;8.890;2023-07-30T13:32:18;20.40;99.90
26304;DHT22;70693;48.680;8.890;2023-07-30T13:34:44;20.40;99.90
26304;DHT22;70693;48.680;8.890;2023-07-30T13:37:09;20.40;99.90
26304;DHT22;70693;48.680;8.890;2023-07-30T13:39:35;20.40;99.90
26304;DHT22;70693;48.680;8.890;2023-07-30T13:42:01;20.40;99.90
26304;DHT22;70693;48.680;8.890;2023-07-30T13:44:26;20.40;99.90
26304;DHT22;70693;48.680;8.890;2023-07-30T13:46:52;20.40;99.90
26304;DHT22;70693;48.680;8.890;2023-07-30T13:49:19;20.40;99.90
26304;DHT22;70693;48.680;8.890;2023-07-30T13:51:44;20.40;99.90
26304;DHT22;70693;48.680;8.890;2023-07-30T13:54:10;20.40;99.90
26304;DHT22;70693;48.680;8.890;2023-07-30T13:56:36;20.40;99.90
26304;DHT22;70693;48.680;8.890;2023-07-30T13:59:04;20.40;99.90
26304;DHT22;70693;48.680;8.890;2023-07-30T14:01:30;20.40;99.90
26304;DHT22;70693;48.680;8.890;2023-07-30T14:03:55;20.40;99.90
26304;DHT22;70693;48.680;8.890;2023-07-30T14:06:21;20.40;99.90
26304;DHT22;70693;48.680;8.890;2023-07-30T14:08:47;20.40;99.90
26304;DHT22;70693;48.680;8.890;2023-07-30T14:11:12;20.40;99.90
26304;DHT22;70693;48.680;8.890;2023-07-30T14:13:38;20.40;99.90
26304;DHT22;70693;48.680;8.890;2023-07-30T14:16:04;20.40;99.90
26304;DHT22;70693;48.680;8.890;2023-07-30T14:18:29;20.40;99.90
26304;DHT22;70693;48.680;8.890;2023-07-30T14:20:55;20.40;99.90
26304;DHT22;70693;48.680;8.890;2023-07-30T14:23:20;20.40;99.90
26304;DHT22;70693;48.680;8.890;2023-07-30T14:25:46;20.40;99.90
26304;DHT22;70693;48.680;8.890;2023-07-30T14:28:12;20.40;99.90
26304;DHT22;70693;48.680;8.890;2023-07-30T14:30:40;20.40;99.90
26304;DHT22;70693;48.680;8.890;2023-07-30T14:33:10;20.40;99.90
26304;DHT22;70693;48.680;8.890;2023-07-30T14:35:35;20.40;99.90
26304;DHT22;70693;48.680;8.890;2023-07-30T14:38:06;20.40;99.90
26304;DHT22;70693;48.680;8.890;2023-07-30T14:40:32;20.40;99.90
26304;DHT22;70693;48.680;8.890;2023-07-30T14:42:58;20.40;99.90
26304;DHT22;70693;48.680;8.890;2023-07-30T14:45:24;20.40;99.90
26304;DHT22;70693;48.680;8.890;2023-07-30T14:47:49;20.40;99.90
26304;DHT22;70693;48.680;8.890;2023-07-30T14:50:15;20.40;99.90
26304;DHT22;70693;48.680;8.890;2023-07-30T14:52:40;20.40;99.90
26304;DHT22;70693;48.680;8.890;2023-07-30T14:55:06;20.40;99.90
26304;DHT22;70693;48.680;8.890;2023-07-30T14:57:32;20.40;99.90
26304;DHT22;70693;48.680;8.890;2023-07-30T14:59:59;20.40;99.90
26304;DHT22;70693;48.680;8.890;2023-07-30T15:02:26;20.40;99.90
26304;DHT22;70693;48.680;8.890;2023-07-30T15:04:53;20.40;99.90
26304;DHT22;70693;48.680;8.890;2023-07-30T15:07:19;20.40;99.90
26304;DHT22;70693;48.680;8.890;2023-07-30T15:09:44;20.40;99.90
26304;DHT22;70693;48.680;8.890;2023-07-30T15:12:12;20.40;99.90
26304;DHT22;70693;48.680;8.890;2023-07-30T15:14:37;20.40;99.90
26304;DHT22;70693;48.680;8.890;2023-07-30T15:17:04;20.50;99.90
26304;DHT22;70693;48.680;8.890;2023-07-30T15:19:30;20.40;99.90
26304;DHT22;70693;48.680;8.890;2023-07-30T15:21:56;20.40;99.90
26304;DHT22;70693;48.680;8.890;2023-07-30T15:24:22;20.50;99.90
26304;DHT22;70693;48.680;8.890;2023-07-30T15:26:47;20.50;99.90
26304;DHT22;70693;48.680;8.890;2023-07-30T15:29:13;20.40;99.90
26304;DHT22;70693;48.680;8.890;2023-07-30T15:31:38;20.40;99.90
26304;DHT22;70693;48.680;8.890;2023-07-30T15:34:04;20.50;99.90
26304;DHT22;70693;48.680;8.890;2023-07-30T15:36:30;20.40;99.90